createdAt,value
2022-07-27T00:01:07.374Z,1999.90
2022-07-27T00:03:34.767Z,1999.90
2022-07-27T00:06:01.958Z,1999.90
2022-07-27T00:08:29.196Z,1999.90
2022-07-27T00:10:57.205Z,1999.90
2022-07-27T00:13:24.841Z,1999.90
2022-07-27T00:15:52.075Z,1999.90
2022-07-27T00:18:19.334Z,1999.90
2022-07-27T00:20:46.563Z,1999.90
2022-07-27T00:23:13.769Z,1999.90
2022-07-27T00:25:41.080Z,1999.90
2022-07-27T00:28:08.288Z,1999.90
2022-07-27T00:30:35.479Z,1999.90
2022-07-27T00:33:03.550Z,1999.90
2022-07-27T00:35:30.829Z,1999.90
2022-07-27T00:37:58.486Z,1999.90
2022-07-27T00:40:26.978Z,1999.90
2022-07-27T00:42:54.230Z,1999.90
2022-07-27T00:45:21.583Z,1999.90
2022-07-27T00:47:53.178Z,1999.90
2022-07-27T00:50:22.227Z,1999.90
2022-07-27T00:52:49.649Z,1999.90
2022-07-27T00:55:16.896Z,1999.90
2022-07-27T00:57:53.351Z,1999.90
2022-07-27T01:00:27.970Z,1999.90
2022-07-27T01:02:57.402Z,1999.90
2022-07-27T01:05:36.047Z,1999.90
2022-07-27T01:08:05.497Z,1999.90
2022-07-27T01:10:32.750Z,1999.90
2022-07-27T01:13:00.133Z,1999.90
2022-07-27T01:15:27.445Z,1999.90
2022-07-27T01:17:54.707Z,1999.90
2022-07-27T01:20:22.138Z,1999.90
2022-07-27T01:22:49.326Z,1999.90
2022-07-27T01:25:16.601Z,1999.90
2022-07-27T01:27:43.784Z,1999.90
2022-07-27T01:30:26.809Z,1999.90
2022-07-27T01:33:04.656Z,1999.90
2022-07-27T01:35:32.587Z,1999.90
2022-07-27T01:38:00.323Z,1999.90
2022-07-27T01:40:28.049Z,1999.90
2022-07-27T01:42:55.269Z,1999.90
2022-07-27T01:45:22.555Z,1999.90
2022-07-27T01:47:49.751Z,1999.90
2022-07-27T01:50:17.070Z,1999.90
2022-07-27T01:52:44.334Z,1999.90
2022-07-27T01:55:12.046Z,1999.90
2022-07-27T01:57:39.592Z,1999.90
2022-07-27T02:00:11.127Z,1999.90
2022-07-27T02:02:41.202Z,1999.90
2022-07-27T02:05:11.871Z,1999.90
2022-07-27T02:07:42.576Z,1999.90
2022-07-27T02:10:10.721Z,1999.90
2022-07-27T02:12:38.319Z,1999.90
2022-07-27T02:15:15.322Z,1999.90
2022-07-27T02:17:44.963Z,1999.90
2022-07-27T02:20:14.820Z,1999.90
2022-07-27T02:22:42.880Z,1999.90
2022-07-27T02:25:11.767Z,1999.90
2022-07-27T02:27:40.336Z,1352.87
2022-07-27T02:30:08.735Z,1999.90
2022-07-27T02:32:35.960Z,1999.90
2022-07-27T02:35:18.659Z,1999.90
2022-07-27T02:37:48.564Z,1999.90
2022-07-27T02:40:17.274Z,1431.07
2022-07-27T02:42:45.842Z,1496.07
2022-07-27T02:45:14.682Z,386.80
2022-07-27T02:47:42.614Z,397.33
2022-07-27T02:50:10.200Z,493.47
2022-07-27T02:52:38.059Z,540.87
2022-07-27T02:55:05.880Z,618.87
2022-07-27T02:57:35.918Z,595.10
2022-07-27T03:00:06.743Z,392.13
2022-07-27T03:02:33.987Z,1484.60
2022-07-27T03:05:01.190Z,447.77
2022-07-27T03:07:28.450Z,613.37
2022-07-27T03:09:55.607Z,626.53
2022-07-27T03:12:22.786Z,560.57
2022-07-27T03:14:49.985Z,707.67
2022-07-27T03:17:17.214Z,658.03
2022-07-27T03:19:44.411Z,558.77
2022-07-27T03:22:11.610Z,593.73
2022-07-27T03:24:38.837Z,551.40
2022-07-27T03:27:05.990Z,535.63
2022-07-27T03:29:35.362Z,495.00
2022-07-27T03:32:02.683Z,566.43
2022-07-27T03:34:29.879Z,546.83
2022-07-27T03:36:57.117Z,554.57
2022-07-27T03:39:24.292Z,556.20
2022-07-27T03:41:51.502Z,589.77
2022-07-27T03:44:18.672Z,694.10
2022-07-27T03:46:45.965Z,755.37
2022-07-27T03:49:14.664Z,875.70
2022-07-27T03:51:42.961Z,949.13
2022-07-27T03:54:10.409Z,927.07
2022-07-27T03:56:37.675Z,1062.17
2022-07-27T03:59:05.345Z,1069.77
2022-07-27T04:01:32.591Z,1076.90
2022-07-27T04:03:59.805Z,1131.90
2022-07-27T04:06:27.126Z,1095.90
2022-07-27T04:08:59.734Z,1102.17
2022-07-27T04:11:50.551Z,947.50
2022-07-27T04:14:21.087Z,1048.23
2022-07-27T04:16:48.601Z,1172.77
2022-07-27T04:19:16.180Z,1300.50
2022-07-27T04:21:43.648Z,1273.67
2022-07-27T04:24:10.857Z,1380.30
2022-07-27T04:26:38.045Z,1516.33
2022-07-27T04:29:05.731Z,1613.60
2022-07-27T04:31:35.293Z,1431.97
2022-07-27T04:34:02.574Z,941.87
2022-07-27T04:36:29.782Z,1170.60
2022-07-27T04:39:01.625Z,592.53
2022-07-27T04:41:30.310Z,1999.90
2022-07-27T04:43:58.946Z,1999.90
2022-07-27T04:46:29.714Z,1999.90
2022-07-27T04:48:57.469Z,1999.90
2022-07-27T04:51:26.818Z,1999.90
2022-07-27T04:53:58.213Z,1999.90
2022-07-27T04:56:27.031Z,1537.50
2022-07-27T04:58:55.525Z,1999.90
2022-07-27T05:01:23.308Z,352.30
2022-07-27T05:03:52.999Z,575.13
2022-07-27T05:06:20.276Z,473.95
2022-07-27T05:08:47.470Z,765.67
2022-07-27T05:11:14.965Z,1005.40
2022-07-27T05:13:42.205Z,1248.00
2022-07-27T05:16:13.403Z,1999.90
2022-07-27T05:18:40.860Z,1742.47
2022-07-27T05:21:14.058Z,1999.90
2022-07-27T05:23:41.802Z,1999.90
2022-07-27T05:26:11.466Z,1002.15
2022-07-27T05:28:41.276Z,933.92
2022-07-27T05:31:12.100Z,1999.90
2022-07-27T05:33:49.292Z,1038.00
2022-07-27T05:36:20.596Z,656.85
2022-07-27T05:38:54.796Z,1004.58
2022-07-27T05:41:24.909Z,1999.90
2022-07-27T05:43:54.321Z,1340.80
2022-07-27T05:46:32.463Z,704.67
2022-07-27T05:49:02.381Z,636.78
2022-07-27T05:51:31.453Z,710.88
2022-07-27T05:53:59.558Z,809.47
2022-07-27T05:56:28.612Z,666.58
2022-07-27T05:58:58.247Z,628.42
2022-07-27T06:01:29.366Z,822.55
2022-07-27T06:04:01.611Z,500.17
2022-07-27T06:06:48.833Z,488.35
2022-07-27T06:09:17.444Z,460.90
2022-07-27T06:11:44.785Z,495.80
2022-07-27T06:14:14.260Z,524.42
2022-07-27T06:16:41.498Z,631.38
2022-07-27T06:19:08.910Z,587.10
2022-07-27T06:21:36.394Z,572.85
2022-07-27T06:24:03.805Z,618.17
2022-07-27T06:26:35.308Z,553.45
2022-07-27T06:29:02.513Z,740.10
2022-07-27T06:31:39.759Z,805.05
2022-07-27T06:34:11.703Z,648.67
2022-07-27T06:36:42.240Z,801.15
2022-07-27T06:39:09.785Z,773.05
2022-07-27T06:41:37.398Z,1001.05
2022-07-27T06:44:05.064Z,962.50
2022-07-27T06:46:32.304Z,1009.03
2022-07-27T06:48:59.596Z,888.10
2022-07-27T06:51:26.827Z,1020.17
2022-07-27T06:53:54.406Z,1033.97
2022-07-27T06:56:24.235Z,993.58
2022-07-27T06:58:51.472Z,1004.00
2022-07-27T07:01:18.845Z,1036.28
2022-07-27T07:03:46.190Z,1063.63
2022-07-27T07:06:13.699Z,1026.18
2022-07-27T07:08:40.943Z,1007.00
2022-07-27T07:11:11.765Z,952.05
2022-07-27T07:13:43.252Z,942.22
2022-07-27T07:16:12.742Z,932.72
2022-07-27T07:18:40.091Z,925.25
2022-07-27T07:21:07.344Z,803.88
2022-07-27T07:23:34.566Z,802.10
2022-07-27T07:26:01.730Z,859.97
2022-07-27T07:28:28.933Z,906.10
2022-07-27T07:30:56.260Z,843.15
2022-07-27T07:33:23.605Z,772.63
2022-07-27T07:36:13.947Z,882.22
2022-07-27T07:38:38.080Z,921.28
2022-07-27T07:41:06.053Z,978.53
2022-07-27T07:43:35.478Z,941.83
2022-07-27T07:46:03.087Z,849.38
2022-07-27T07:48:30.602Z,850.63
2022-07-27T07:50:58.758Z,850.85
2022-07-27T07:53:26.098Z,862.72
2022-07-27T07:55:56.039Z,945.53
2022-07-27T07:58:23.271Z,1999.90
2022-07-27T08:00:50.496Z,1999.90
2022-07-27T08:03:18.298Z,1999.90
2022-07-27T08:05:45.793Z,1999.90
2022-07-27T08:08:13.070Z,1999.90
2022-07-27T08:10:40.280Z,1999.90
2022-07-27T08:13:08.599Z,1999.90
2022-07-27T08:15:36.615Z,1999.90
2022-07-27T08:18:05.893Z,1999.90
2022-07-27T08:20:34.945Z,1999.90
2022-07-27T08:23:03.263Z,1999.90
2022-07-27T08:25:31.137Z,1999.90
2022-07-27T08:27:58.685Z,1999.90
2022-07-27T08:30:26.386Z,1999.90
2022-07-27T08:32:58.130Z,1999.90
2022-07-27T08:35:26.711Z,1999.90
2022-07-27T08:37:55.101Z,1999.90
2022-07-27T08:43:12.094Z,1999.90
2022-07-27T08:45:41.651Z,1999.90
2022-07-27T08:48:13.448Z,1999.90
2022-07-27T08:50:42.760Z,1999.90
2022-07-27T08:53:12.872Z,1999.90
2022-07-27T08:55:43.337Z,1999.90
2022-07-27T08:58:12.190Z,1999.90
2022-07-27T09:00:41.475Z,1999.90
2022-07-27T09:03:18.440Z,1999.90
2022-07-27T09:05:55.878Z,608.33
2022-07-27T09:08:25.991Z,618.53
2022-07-27T09:10:55.507Z,601.33
2022-07-27T09:13:26.603Z,643.70
2022-07-27T09:18:46.750Z,640.15
2022-07-27T09:21:23.702Z,386.15
2022-07-27T09:23:53.284Z,352.50
2022-07-27T09:26:34.483Z,321.13
2022-07-27T09:29:11.033Z,173.48
2022-07-27T09:31:42.630Z,200.82
2022-07-27T09:34:10.858Z,195.02
2022-07-27T09:36:55.261Z,245.70
2022-07-27T09:39:24.123Z,551.35
2022-07-27T09:41:53.542Z,668.63
2022-07-27T09:44:34.741Z,792.22
2022-07-27T09:47:26.541Z,693.08
2022-07-27T09:50:15.064Z,787.55
2022-07-27T09:52:42.527Z,825.83
2022-07-27T09:55:10.314Z,728.20
2022-07-27T09:57:54.215Z,890.53
2022-07-27T10:00:24.954Z,870.05
2022-07-27T10:02:53.859Z,739.85
2022-07-27T10:05:22.799Z,576.08
2022-07-27T10:07:52.650Z,280.08
2022-07-27T10:10:21.270Z,242.88
2022-07-27T10:12:54.173Z,142.77
2022-07-27T10:15:23.361Z,183.20
2022-07-27T10:18:01.842Z,191.45
2022-07-27T10:20:31.727Z,488.33
2022-07-27T10:22:59.437Z,292.55
2022-07-27T10:25:33.101Z,381.27
2022-07-27T10:28:17.768Z,431.88
2022-07-27T10:30:49.350Z,580.65
2022-07-27T10:33:44.558Z,1017.03
2022-07-27T10:36:32.001Z,802.25
2022-07-27T10:39:05.423Z,693.88
2022-07-27T10:41:35.644Z,854.42
2022-07-27T10:44:18.035Z,521.00
2022-07-27T10:46:50.668Z,668.50
2022-07-27T10:49:19.732Z,751.53
2022-07-27T10:51:47.487Z,730.38
2022-07-27T10:54:32.445Z,559.10
2022-07-27T10:57:01.579Z,651.45
2022-07-27T11:00:07.481Z,951.72
2022-07-27T11:02:41.184Z,728.00
2022-07-27T11:05:24.886Z,643.83
2022-07-27T11:10:49.052Z,540.83
2022-07-27T11:13:21.607Z,962.13
2022-07-27T11:16:09.666Z,679.33
2022-07-27T11:18:53.082Z,707.03
2022-07-27T11:21:36.120Z,871.10
2022-07-27T11:24:12.025Z,657.75
2022-07-27T11:26:45.763Z,592.00
2022-07-27T11:29:15.012Z,635.40
2022-07-27T11:31:59.716Z,291.67
2022-07-27T11:34:35.548Z,278.65
2022-07-27T11:37:11.722Z,147.48
2022-07-27T11:42:38.100Z,312.52
2022-07-27T11:45:06.959Z,633.17
2022-07-27T11:47:34.285Z,702.42
2022-07-27T11:50:11.290Z,492.52
2022-07-27T11:52:38.620Z,261.50
2022-07-27T11:55:07.782Z,156.10
2022-07-27T11:57:35.995Z,137.45
2022-07-27T12:00:05.185Z,207.55
2022-07-27T12:02:51.541Z,355.42
2022-07-27T12:05:19.129Z,274.13
2022-07-27T12:07:46.565Z,319.42
2022-07-27T12:10:13.768Z,345.48
2022-07-27T12:12:41.150Z,367.33
2022-07-27T12:15:44.623Z,404.48
2022-07-27T12:18:04.432Z,477.95
2022-07-27T12:20:33.377Z,860.65
2022-07-27T12:23:08.028Z,782.65
2022-07-27T12:25:36.190Z,747.90
2022-07-27T12:28:06.713Z,757.50
2022-07-27T12:30:50.256Z,778.97
2022-07-27T12:33:27.974Z,758.17
2022-07-27T12:35:56.641Z,735.20
2022-07-27T12:38:24.086Z,792.05
2022-07-27T12:41:00.820Z,614.92
2022-07-27T12:43:28.456Z,335.80
2022-07-27T12:45:56.229Z,336.13
2022-07-27T12:48:26.034Z,324.23
2022-07-27T12:51:00.310Z,269.75
2022-07-27T12:53:28.098Z,170.48
2022-07-27T12:55:57.606Z,196.65
2022-07-27T12:58:25.297Z,351.30
2022-07-27T13:00:52.883Z,351.17
2022-07-27T13:03:20.356Z,347.45
2022-07-27T13:05:47.609Z,416.20
2022-07-27T13:08:16.756Z,549.45
2022-07-27T13:10:44.843Z,578.60
2022-07-27T13:13:12.057Z,565.45
2022-07-27T13:15:39.330Z,642.35
2022-07-27T13:18:08.315Z,643.47
2022-07-27T13:20:36.662Z,772.10
2022-07-27T13:23:07.711Z,907.33
2022-07-27T13:25:39.598Z,865.70
2022-07-27T13:28:10.346Z,834.67
2022-07-27T13:30:37.730Z,812.40
2022-07-27T13:33:04.929Z,781.00
2022-07-27T13:43:12.568Z,1999.90
2022-07-27T13:45:42.914Z,1999.90
2022-07-27T13:48:11.998Z,1999.90
2022-07-27T13:50:40.189Z,1999.90
2022-07-27T13:53:07.441Z,1999.90
2022-07-27T13:55:35.270Z,1999.90
2022-07-27T13:58:02.469Z,1999.90
2022-07-27T14:00:29.684Z,1999.90
2022-07-27T14:02:56.968Z,1999.90
2022-07-27T14:05:24.673Z,1999.90
2022-07-27T14:07:54.150Z,1999.90
2022-07-27T14:10:39.910Z,1999.90
2022-07-27T14:13:10.758Z,1999.90
2022-07-27T14:15:50.645Z,1999.90
2022-07-27T14:18:23.638Z,1999.90
2022-07-27T14:20:50.879Z,1999.90
2022-07-27T14:23:18.152Z,1999.90
2022-07-27T14:25:45.394Z,1999.90
2022-07-27T14:28:12.573Z,1999.90
2022-07-27T14:30:39.897Z,1999.90
2022-07-27T14:33:07.149Z,1999.90
2022-07-27T14:35:39.885Z,1999.90
2022-07-27T14:38:09.542Z,1999.90
2022-07-27T14:40:37.667Z,1999.90
2022-07-27T14:43:05.267Z,1999.90
2022-07-27T14:45:44.951Z,1999.90
2022-07-27T14:48:22.786Z,1999.90
2022-07-27T14:50:55.734Z,1999.90
2022-07-27T14:53:23.222Z,1999.90
2022-07-27T14:55:50.471Z,1999.90
2022-07-27T14:58:17.770Z,1999.90
2022-07-27T15:00:45.225Z,1999.90
2022-07-27T15:03:14.700Z,1999.90
2022-07-27T15:05:50.349Z,1999.90
2022-07-27T15:08:19.881Z,1999.90
2022-07-27T15:10:47.822Z,1999.90
2022-07-27T15:13:15.100Z,1999.90
2022-07-27T15:15:42.670Z,1999.90
2022-07-27T15:18:10.338Z,1999.90
2022-07-27T15:20:37.643Z,1999.90
2022-07-27T15:23:06.357Z,1999.90
2022-07-27T15:25:33.821Z,1999.90
2022-07-27T15:28:01.158Z,1999.90
2022-07-27T15:30:28.561Z,1999.90
2022-07-27T15:32:55.824Z,1999.90
2022-07-27T15:35:23.039Z,1999.90
2022-07-27T15:37:54.142Z,1999.90
2022-07-27T15:40:39.118Z,1999.90
2022-07-27T15:43:10.571Z,1999.90
2022-07-27T15:45:40.269Z,1999.90
2022-07-27T15:48:10.175Z,1999.90
2022-07-27T15:50:39.334Z,1999.90
2022-07-27T15:53:07.039Z,1999.90
2022-07-27T15:55:37.249Z,1999.90
2022-07-27T15:58:06.025Z,1999.90
2022-07-27T16:00:39.187Z,1999.90
2022-07-27T16:03:11.693Z,1999.90
2022-07-27T16:05:40.968Z,1999.90
2022-07-27T16:08:09.727Z,1999.90
2022-07-27T16:10:38.712Z,1999.90
2022-07-27T16:13:07.091Z,1999.90
2022-07-27T16:15:54.071Z,1999.90
2022-07-27T16:18:21.966Z,1999.90
2022-07-27T16:20:49.461Z,1999.90
2022-07-27T16:23:18.087Z,1999.90
2022-07-27T16:26:07.503Z,1999.90
2022-07-27T16:28:40.633Z,1999.90
2022-07-27T16:31:10.349Z,1999.90
2022-07-27T16:33:38.014Z,1999.90
2022-07-27T16:36:06.057Z,1999.90
2022-07-27T16:38:49.887Z,1999.90
2022-07-27T16:41:22.376Z,1999.90
2022-07-27T16:43:50.127Z,1999.90
2022-07-27T16:46:18.000Z,1999.90
2022-07-27T16:48:45.418Z,1999.90
2022-07-27T16:51:14.678Z,1999.90
2022-07-27T16:53:45.602Z,1999.90
2022-07-27T16:56:14.450Z,1999.90
2022-07-27T16:58:41.733Z,1999.90
2022-07-27T17:01:09.468Z,1999.90
2022-07-27T17:03:37.524Z,1999.90
2022-07-27T17:06:06.506Z,1999.90
2022-07-27T17:08:35.778Z,1999.90
2022-07-27T17:11:06.135Z,1999.90
2022-07-27T17:13:34.647Z,1999.90
2022-07-27T17:16:04.523Z,1999.90
2022-07-27T17:18:38.959Z,1999.90
2022-07-27T17:21:09.411Z,1999.90
2022-07-27T17:23:38.186Z,1999.90
2022-07-27T17:26:07.235Z,1999.90
2022-07-27T17:28:36.729Z,1999.90
2022-07-27T17:31:05.488Z,1999.90
2022-07-27T17:33:32.992Z,1999.90
2022-07-27T17:36:00.265Z,1999.90
2022-07-27T17:38:27.920Z,1999.90
2022-07-27T17:40:55.274Z,1999.90
2022-07-27T17:43:22.561Z,1999.90
2022-07-27T17:45:49.822Z,1999.90
2022-07-27T17:48:17.080Z,1999.90
2022-07-27T17:50:44.484Z,1999.90
2022-07-27T17:53:11.738Z,1999.90
2022-07-27T17:55:38.979Z,1999.90
2022-07-27T17:58:06.184Z,1999.90
2022-07-27T18:00:33.411Z,1999.90
2022-07-27T18:03:00.694Z,1999.90
2022-07-27T18:05:27.897Z,1999.90
2022-07-27T18:07:55.213Z,1999.90
2022-07-27T18:10:22.431Z,1999.90
2022-07-27T18:12:49.694Z,1999.90
2022-07-27T18:15:35.443Z,1999.90
2022-07-27T18:18:02.653Z,1999.90
2022-07-27T18:20:29.932Z,1999.90
2022-07-27T18:22:57.426Z,1999.90
2022-07-27T18:25:26.871Z,1999.90
2022-07-27T18:27:54.071Z,1999.90
2022-07-27T18:30:21.237Z,1999.90
2022-07-27T18:32:48.487Z,1999.90
2022-07-27T18:35:15.878Z,1999.90
2022-07-27T18:37:44.209Z,1999.90
2022-07-27T18:40:12.154Z,1999.90
2022-07-27T18:42:39.523Z,1999.90
2022-07-27T18:45:07.702Z,1999.90
2022-07-27T18:47:35.626Z,1999.90
2022-07-27T18:50:03.835Z,1999.90
2022-07-27T18:52:31.390Z,1999.90
2022-07-27T18:54:58.659Z,1999.90
2022-07-27T18:57:26.304Z,1999.90
2022-07-27T18:59:53.597Z,1999.90
2022-07-27T19:02:22.492Z,1999.90
2022-07-27T19:04:53.942Z,1999.90
2022-07-27T19:07:22.428Z,1999.90
2022-07-27T19:09:51.161Z,1999.90
2022-07-27T19:12:18.327Z,1999.90
2022-07-27T19:14:45.621Z,1999.90
2022-07-27T19:17:19.515Z,1999.90
2022-07-27T19:19:47.367Z,1999.90
2022-07-27T19:22:15.245Z,1999.90
2022-07-27T19:24:42.454Z,1999.90
2022-07-27T19:27:09.769Z,1999.90
2022-07-27T19:29:36.988Z,1999.90
2022-07-27T19:32:05.154Z,1999.90
2022-07-27T19:34:32.346Z,1999.90
2022-07-27T19:36:59.542Z,506.95
2022-07-27T19:39:26.734Z,641.50
2022-07-27T19:41:54.446Z,713.60
2022-07-27T19:44:22.587Z,698.22
2022-07-27T19:46:49.922Z,740.95
2022-07-27T19:49:18.449Z,247.73
2022-07-27T19:51:46.054Z,168.23
2022-07-27T19:54:13.664Z,156.23
2022-07-27T19:56:40.951Z,630.38
2022-07-27T19:59:08.229Z,591.33
2022-07-27T20:01:35.864Z,1999.90
2022-07-27T20:04:09.135Z,1999.90
2022-07-27T20:06:36.510Z,1999.90
2022-07-27T20:09:05.184Z,507.45
2022-07-27T20:11:33.691Z,424.33
2022-07-27T20:14:02.484Z,1547.20
2022-07-27T20:16:32.039Z,591.53
2022-07-27T20:19:00.142Z,554.25
2022-07-27T20:21:27.393Z,1999.90
2022-07-27T20:23:57.328Z,757.53
2022-07-27T20:26:25.023Z,688.53
2022-07-27T20:28:53.046Z,1999.90
2022-07-27T20:31:20.843Z,867.10
2022-07-27T20:33:48.113Z,885.90
2022-07-27T20:36:15.285Z,1999.90
2022-07-27T20:38:42.447Z,1999.90
2022-07-27T20:41:09.751Z,1999.90
2022-07-27T20:43:37.326Z,1999.90
2022-07-27T20:46:04.796Z,740.73
2022-07-27T20:48:33.262Z,830.17
2022-07-27T20:51:00.729Z,854.43
2022-07-27T20:53:28.585Z,1999.90
2022-07-27T20:55:55.748Z,1999.90
2022-07-27T20:58:23.187Z,820.17
2022-07-27T21:00:50.630Z,742.00
2022-07-27T21:03:18.075Z,803.63
2022-07-27T21:05:45.567Z,825.33
2022-07-27T21:08:12.922Z,625.73
2022-07-27T21:10:40.303Z,1999.90
2022-07-27T21:13:07.653Z,1999.90
2022-07-27T21:15:35.052Z,1999.90
2022-07-27T21:18:02.860Z,1999.90
2022-07-27T21:20:30.154Z,1999.90
2022-07-27T21:23:15.738Z,1999.90
2022-07-27T21:25:43.406Z,1999.90
2022-07-27T21:28:18.324Z,1999.90
2022-07-27T21:30:46.082Z,1999.90
2022-07-27T21:33:13.349Z,1999.90
2022-07-27T21:35:40.687Z,1999.90
2022-07-27T21:38:07.965Z,1999.90
2022-07-27T21:40:35.212Z,1999.90
2022-07-27T21:43:02.430Z,1999.90
2022-07-27T21:45:29.717Z,1999.90
2022-07-27T21:47:57.349Z,1999.90
2022-07-27T21:50:24.814Z,1999.90
2022-07-27T21:52:53.035Z,1999.90
2022-07-27T21:55:23.113Z,1999.90
2022-07-27T21:57:51.425Z,1999.90
2022-07-27T22:00:25.465Z,1999.90
2022-07-27T22:02:52.811Z,1999.90
2022-07-27T22:05:22.537Z,1999.90
2022-07-27T22:07:52.887Z,1999.90
2022-07-27T22:10:20.238Z,1999.90
2022-07-27T22:12:47.470Z,1999.90
2022-07-27T22:15:14.894Z,1999.90
2022-07-27T22:17:50.374Z,1999.90
2022-07-27T22:20:19.037Z,1999.90
2022-07-27T22:22:47.122Z,1999.90
2022-07-27T22:25:14.674Z,1999.90
2022-07-27T22:27:41.953Z,1999.90
2022-07-27T22:30:09.540Z,1999.90
2022-07-27T22:32:36.793Z,1999.90
2022-07-27T22:35:04.426Z,1999.90
2022-07-27T22:37:31.608Z,1999.90
2022-07-27T22:39:59.033Z,1999.90
2022-07-27T22:42:26.463Z,1999.90
2022-07-27T22:44:53.782Z,1999.90
2022-07-27T22:47:20.928Z,1999.90
2022-07-27T22:49:48.137Z,1999.90
2022-07-27T22:52:15.345Z,1999.90
2022-07-27T22:54:42.596Z,1999.90
2022-07-27T22:57:10.010Z,1999.90
2022-07-27T22:59:37.425Z,1999.90
2022-07-27T23:02:05.531Z,1999.90
2022-07-27T23:04:32.847Z,1999.90
2022-07-27T23:07:00.037Z,1999.90
2022-07-27T23:09:27.288Z,1999.90
2022-07-27T23:11:54.765Z,1999.90
2022-07-27T23:14:25.663Z,1999.90
2022-07-27T23:16:52.918Z,1999.90
2022-07-27T23:19:20.879Z,1999.90
2022-07-27T23:21:49.112Z,1999.90
2022-07-27T23:24:19.124Z,1999.90
2022-07-27T23:26:57.008Z,1999.90
2022-07-27T23:29:24.309Z,1999.90
2022-07-27T23:31:51.757Z,1999.90
2022-07-27T23:34:19.071Z,1999.90
2022-07-27T23:36:46.285Z,1999.90
2022-07-27T23:39:13.523Z,1999.90
2022-07-27T23:41:40.745Z,1999.90
2022-07-27T23:44:07.917Z,1999.90
2022-07-27T23:46:35.203Z,1999.90
2022-07-27T23:49:02.465Z,1999.90
2022-07-27T23:51:29.762Z,1999.90
2022-07-27T23:53:56.937Z,1999.90
2022-07-27T23:56:24.191Z,1999.90
2022-07-27T23:58:51.353Z,1999.90
